Buoy 41602

sailwx.info

Track history (hours):
 
Tides and Currents Weather Stations Pressure Air Temp Water Temp Dewpoint Dewpoint Depression Visibility Wind Speed Wind Dir Waves Ship Positions

Drifting buoy 41602

Last reported at 2014-Jul-26 08:31 UTC. Time now 2014-Jul-26 17:12 UTC.
Position N 28°11' W 048°19'.

Water temperature -0.0 ° C

Date/timePositionNaut miles runAvg speedWind from/ knotsBaromVisibWave heightAir tempDewpointWater temp
2014-Jul-26 08:31N 28°11' W 048°19'0 0.3 -0.0
2014-Jul-26 08:01N 28°11' W 048°19'2 0.3 -0.0
2014-Jul-26 01:00N 28°13' W 048°18'0 0.3 -0.0
2014-Jul-26 00:30N 28°13' W 048°18'0 0.3 -0.0
2014-Jul-26 00:01N 28°13' W 048°18'2 0.3 -0.0
2014-Jul-25 18:31N 28°15' W 048°18'0 0.3 -0.0
2014-Jul-25 18:01N 28°15' W 048°18'1 0.2 -0.0
2014-Jul-25 13:00N 28°16' W 048°19'0 0.0 -0.0
2014-Jul-25 12:30N 28°16' W 048°19'0 0.1 -0.0
2014-Jul-25 11:31N 28°16' W 048°19'0 0.2 -0.0
2014-Jul-25 11:01N 28°16' W 048°19'1 0.2 -0.0
2014-Jul-25 06:31N 28°17' W 048°18'0 0.4 -0.0
2014-Jul-25 06:01N 28°17' W 048°18'1 0.3 -0.0
2014-Jul-25 01:31N 28°18' W 048°18'0 0.3 -0.0
2014-Jul-25 01:01N 28°18' W 048°18'0 0.2 -0.0
2014-Jul-24 23:01N 28°19' W 048°19'0 0.1 -0.0
2014-Jul-24 20:31N 28°19' W 048°19'0 0.2 -0.0
2014-Jul-24 20:01N 28°19' W 048°19'2 0.3 -0.0
2014-Jul-24 14:01N 28°17' W 048°20'0 0.2 -0.0
2014-Jul-24 13:31N 28°17' W 048°20'0 0.3 -0.0
2014-Jul-24 13:01N 28°17' W 048°20'0 0.3 -0.0
2014-Jul-24 12:31N 28°17' W 048°20'0 0.3 -0.0
2014-Jul-24 12:01N 28°17' W 048°20'1 0.3 -0.0
2014-Jul-24 09:31N 28°16' W 048°19'0 0.4 -0.0
2014-Jul-24 09:01N 28°16' W 048°19'0 0.2 -0.0
2014-Jul-24 07:31N 28°16' W 048°19'0 0.2 -0.0
2014-Jul-24 07:01N 28°16' W 048°19'1 0.2 -0.0
2014-Jul-24 01:01N 28°17' W 048°18'0 0.4 -0.0
2014-Jul-24 00:31N 28°17' W 048°18'0 0.4 -0.0
2014-Jul-24 00:00N 28°17' W 048°18'0 0.5 -0.0
2014-Jul-23 23:31N 28°17' W 048°19'0 0.6 -0.0
2014-Jul-23 23:01N 28°18' W 048°19'1 0.5 -0.0
2014-Jul-23 21:01N 28°18' W 048°20'6 0.3 -0.0
2014-Jul-23 04:01N 28°12' W 048°21'4 0.2 -0.0
2014-Jul-22 13:01N 28°09' W 048°24'2 0.5 -0.0
2014-Jul-22 09:01N 28°07' W 048°23'1 0.4 -0.0
2014-Jul-22 07:01N 28°07' W 048°22'4 0.2 -0.0
2014-Jul-21 12:01N 28°03' W 048°22'1 0.4 27.1
2014-Jul-21 09:01N 28°02' W 048°22'0 0.4 27.0
2014-Jul-21 08:00N 28°01' W 048°22'0 0.4 27.1
2014-Jul-21 07:30N 28°01' W 048°22'2 0.3 27.1
2014-Jul-21 01:01N 28°00' W 048°20'2 0.2 27.5
2014-Jul-20 17:01N 27°59' W 048°20'1 0.4 28.0
2014-Jul-20 14:31N 27°58' W 048°20'0 0.4 27.7
2014-Jul-20 14:01N 27°57' W 048°20'2 0.4 27.6
2014-Jul-20 09:31N 27°56' W 048°20'0 0.0 27.3
2014-Jul-20 09:01N 27°56' W 048°20'1 0.2 27.2
2014-Jul-20 03:01N 27°55' W 048°19'1 0.1 27.3
2014-Jul-19 22:01N 27°55' W 048°19'1 0.3 28.1
2014-Jul-19 19:31N 27°54' W 048°20'0 0.5 28.2
2014-Jul-19 19:01N 27°54' W 048°20'4 0.5 28.3
2014-Jul-19 10:01N 27°50' W 048°20'0 0.3 26.6
2014-Jul-19 09:31N 27°49' W 048°20'0 0.3 26.6
2014-Jul-19 08:31N 27°49' W 048°20'0 0.2 26.6
2014-Jul-19 08:01N 27°49' W 048°20'1 0.4 26.7
2014-Jul-19 06:31N 27°49' W 048°20'0 0.4 26.7
2014-Jul-19 06:01N 27°48' W 048°20'1 0.5 26.7
2014-Jul-19 04:01N 27°48' W 048°19'0 0.5 26.7
2014-Jul-19 03:31N 27°47' W 048°19'2 0.1 26.7
2014-Jul-18 08:01N 27°48' W 048°16'0 0.1 26.7
2014-Jul-18 06:00N 27°48' W 048°16'0 0.2 26.7
2014-Jul-18 04:31N 27°47' W 048°16'0 0.3 26.8
2014-Jul-18 04:01N 27°47' W 048°16'1 0.5 26.8
2014-Jul-18 01:31N 27°47' W 048°15'0 0.5 26.8
2014-Jul-18 01:01N 27°47' W 048°14'1 0.5 26.8
2014-Jul-17 23:01N 27°47' W 048°13'0 0.5 26.8
2014-Jul-17 22:31N 27°47' W 048°13'0 0.4 26.8
2014-Jul-17 22:01N 27°47' W 048°13'2 0.5 26.9
2014-Jul-17 18:31N 27°48' W 048°11'0 0.5 27.0
2014-Jul-17 18:01N 27°48' W 048°10'1 0.6 26.9
2014-Jul-17 16:01N 27°49' W 048°10'0 0.5 26.9
2014-Jul-17 15:31N 27°49' W 048°09'3 0.2 26.8
2014-Jul-17 00:00N 27°51' W 048°07'0 0.3 26.8
2014-Jul-16 23:01N 27°51' W 048°07'0 0.3 26.8
2014-Jul-16 22:31N 27°51' W 048°07'0 0.3 26.8
2014-Jul-16 22:01N 27°51' W 048°06'1 0.5 26.8
2014-Jul-16 20:31N 27°51' W 048°06'0 0.6 26.9
2014-Jul-16 20:01N 27°51' W 048°05'2 0.4 27.0
2014-Jul-16 16:01N 27°53' W 048°04'1 0.3 27.0
2014-Jul-16 14:31N 27°53' W 048°04'0 0.4 26.7
2014-Jul-16 14:01N 27°53' W 048°04'0 0.3 26.7
2014-Jul-16 13:01N 27°53' W 048°03'0 0.2 26.6
2014-Jul-16 12:01N 27°53' W 048°03'0 0.2 26.5
2014-Jul-16 09:31N 27°53' W 048°03'0 0.3 26.5
2014-Jul-16 09:01N 27°54' W 048°02'   26.5
Track history (hours):
 
Tides and Currents Weather Stations Pressure Air Temp Water Temp Dewpoint Dewpoint Depression Visibility Wind Speed Wind Dir Waves Ship Positions

Drifting buoy 41602

Last reported at 2014-Jul-26 08:31 UTC. Time now 2014-Jul-26 17:12 UTC.
Position N 28°11' W 048°19'.

Water temperature -0.0 ° C

Date/timePositionNaut miles runAvg speedWind from/ knotsBaromVisibWave heightAir tempDewpointWater temp
2014-Jul-26 08:31N 28°11' W 048°19'0 0.3 -0.0
2014-Jul-26 08:01N 28°11' W 048°19'2 0.3 -0.0
2014-Jul-26 01:00N 28°13' W 048°18'0 0.3 -0.0
2014-Jul-26 00:30N 28°13' W 048°18'0 0.3 -0.0
2014-Jul-26 00:01N 28°13' W 048°18'2 0.3 -0.0
2014-Jul-25 18:31N 28°15' W 048°18'0 0.3 -0.0
2014-Jul-25 18:01N 28°15' W 048°18'1 0.2 -0.0
2014-Jul-25 13:00N 28°16' W 048°19'0 0.0 -0.0
2014-Jul-25 12:30N 28°16' W 048°19'0 0.1 -0.0
2014-Jul-25 11:31N 28°16' W 048°19'0 0.2 -0.0
2014-Jul-25 11:01N 28°16' W 048°19'1 0.2 -0.0
2014-Jul-25 06:31N 28°17' W 048°18'0 0.4 -0.0
2014-Jul-25 06:01N 28°17' W 048°18'1 0.3 -0.0
2014-Jul-25 01:31N 28°18' W 048°18'0 0.3 -0.0
2014-Jul-25 01:01N 28°18' W 048°18'0 0.2 -0.0
2014-Jul-24 23:01N 28°19' W 048°19'0 0.1 -0.0
2014-Jul-24 20:31N 28°19' W 048°19'0 0.2 -0.0
2014-Jul-24 20:01N 28°19' W 048°19'2 0.3 -0.0
2014-Jul-24 14:01N 28°17' W 048°20'0 0.2 -0.0
2014-Jul-24 13:31N 28°17' W 048°20'0 0.3 -0.0
2014-Jul-24 13:01N 28°17' W 048°20'0 0.3 -0.0
2014-Jul-24 12:31N 28°17' W 048°20'0 0.3 -0.0
2014-Jul-24 12:01N 28°17' W 048°20'1 0.3 -0.0
2014-Jul-24 09:31N 28°16' W 048°19'0 0.4 -0.0
2014-Jul-24 09:01N 28°16' W 048°19'0 0.2 -0.0
2014-Jul-24 07:31N 28°16' W 048°19'0 0.2 -0.0
2014-Jul-24 07:01N 28°16' W 048°19'1 0.2 -0.0
2014-Jul-24 01:01N 28°17' W 048°18'0 0.4 -0.0
2014-Jul-24 00:31N 28°17' W 048°18'0 0.4 -0.0
2014-Jul-24 00:00N 28°17' W 048°18'0 0.5 -0.0
2014-Jul-23 23:31N 28°17' W 048°19'0 0.6 -0.0
2014-Jul-23 23:01N 28°18' W 048°19'1 0.5 -0.0
2014-Jul-23 21:01N 28°18' W 048°20'6 0.3 -0.0
2014-Jul-23 04:01N 28°12' W 048°21'4 0.2 -0.0
2014-Jul-22 13:01N 28°09' W 048°24'2 0.5 -0.0
2014-Jul-22 09:01N 28°07' W 048°23'1 0.4 -0.0
2014-Jul-22 07:01N 28°07' W 048°22'4 0.2 -0.0
2014-Jul-21 12:01N 28°03' W 048°22'1 0.4 27.1
2014-Jul-21 09:01N 28°02' W 048°22'0 0.4 27.0
2014-Jul-21 08:00N 28°01' W 048°22'0 0.4 27.1
2014-Jul-21 07:30N 28°01' W 048°22'2 0.3 27.1
2014-Jul-21 01:01N 28°00' W 048°20'2 0.2 27.5
2014-Jul-20 17:01N 27°59' W 048°20'1 0.4 28.0
2014-Jul-20 14:31N 27°58' W 048°20'0 0.4 27.7
2014-Jul-20 14:01N 27°57' W 048°20'2 0.4 27.6
2014-Jul-20 09:31N 27°56' W 048°20'0 0.0 27.3
2014-Jul-20 09:01N 27°56' W 048°20'1 0.2 27.2
2014-Jul-20 03:01N 27°55' W 048°19'1 0.1 27.3
2014-Jul-19 22:01N 27°55' W 048°19'1 0.3 28.1
2014-Jul-19 19:31N 27°54' W 048°20'0 0.5 28.2
2014-Jul-19 19:01N 27°54' W 048°20'4 0.5 28.3
2014-Jul-19 10:01N 27°50' W 048°20'0 0.3 26.6
2014-Jul-19 09:31N 27°49' W 048°20'0 0.3 26.6
2014-Jul-19 08:31N 27°49' W 048°20'0 0.2 26.6
2014-Jul-19 08:01N 27°49' W 048°20'1 0.4 26.7
2014-Jul-19 06:31N 27°49' W 048°20'0 0.4 26.7
2014-Jul-19 06:01N 27°48' W 048°20'1 0.5 26.7
2014-Jul-19 04:01N 27°48' W 048°19'0 0.5 26.7
2014-Jul-19 03:31N 27°47' W 048°19'2 0.1 26.7
2014-Jul-18 08:01N 27°48' W 048°16'0 0.1 26.7
2014-Jul-18 06:00N 27°48' W 048°16'0 0.2 26.7
2014-Jul-18 04:31N 27°47' W 048°16'0 0.3 26.8
2014-Jul-18 04:01N 27°47' W 048°16'1 0.5 26.8
2014-Jul-18 01:31N 27°47' W 048°15'0 0.5 26.8
2014-Jul-18 01:01N 27°47' W 048°14'1 0.5 26.8
2014-Jul-17 23:01N 27°47' W 048°13'0 0.5 26.8
2014-Jul-17 22:31N 27°47' W 048°13'0 0.4 26.8
2014-Jul-17 22:01N 27°47' W 048°13'2 0.5 26.9
2014-Jul-17 18:31N 27°48' W 048°11'0 0.5 27.0
2014-Jul-17 18:01N 27°48' W 048°10'1 0.6 26.9
2014-Jul-17 16:01N 27°49' W 048°10'0 0.5 26.9
2014-Jul-17 15:31N 27°49' W 048°09'3 0.2 26.8
2014-Jul-17 00:00N 27°51' W 048°07'0 0.3 26.8
2014-Jul-16 23:01N 27°51' W 048°07'0 0.3 26.8
2014-Jul-16 22:31N 27°51' W 048°07'0 0.3 26.8
2014-Jul-16 22:01N 27°51' W 048°06'1 0.5 26.8
2014-Jul-16 20:31N 27°51' W 048°06'0 0.6 26.9
2014-Jul-16 20:01N 27°51' W 048°05'2 0.4 27.0
2014-Jul-16 16:01N 27°53' W 048°04'1 0.3 27.0
2014-Jul-16 14:31N 27°53' W 048°04'0 0.4 26.7
2014-Jul-16 14:01N 27°53' W 048°04'0 0.3 26.7
2014-Jul-16 13:01N 27°53' W 048°03'0 0.2 26.6
2014-Jul-16 12:01N 27°53' W 048°03'0 0.2 26.5
2014-Jul-16 09:31N 27°53' W 048°03'0 0.3 26.5
2014-Jul-16 09:01N 27°54' W 048°02'   26.5

Dump ship's entire track history